Time;durP1;ratioP1;P1;durP2;ratioP2;P2;SDS_P1;SDS_P2;PMS_P1;PMS_P2;Temp;Humidity;BMP_temperature;BMP_pressure;BME280_temperature;BME280_humidity;BME280_pressure;Samples;Min_cycle;Max_cycle;Signal;HPM_P1;HPM_P2
2023/12/07 00:00:41;;;;;;;0.47;0.47;;;0.50;99.90;;;;;;6160776;23;20059;-82
2023/12/07 00:03:06;;;;;;;1.77;0.73;;;0.50;99.90;;;;;;6182290;23;20390;-81
2023/12/07 00:05:33;;;;;;;0.30;0.30;;;0.50;99.90;;;;;;6185500;23;20013;-82
2023/12/07 00:07:58;;;;;;;0.80;0.80;;;0.40;99.90;;;;;;6160518;23;20013;-82
2023/12/07 00:10:24;;;;;;;0.63;0.63;;;0.40;99.90;;;;;;6212772;23;20091;-82
2023/12/07 00:12:50;;;;;;;0.20;0.20;;;0.30;99.90;;;;;;6159860;23;20009;-82
2023/12/07 00:15:15;;;;;;;0.63;0.63;;;0.30;99.90;;;;;;6186340;23;20013;-82
2023/12/07 00:17:41;;;;;;;0.32;0.32;;;0.30;99.90;;;;;;6186736;23;20389;-82
2023/12/07 00:20:07;;;;;;;2.03;0.70;;;0.20;99.90;;;;;;6186098;23;20475;-83
2023/12/07 00:22:32;;;;;;;0.90;0.50;;;0.30;99.90;;;;;;6185769;23;20012;-82
2023/12/07 00:24:58;;;;;;;0.38;0.38;;;0.20;99.90;;;;;;6155454;23;20016;-82
2023/12/07 00:27:24;;;;;;;0.30;0.30;;;0.30;99.90;;;;;;6186178;23;20027;-82
2023/12/07 00:29:50;;;;;;;1.20;1.10;;;0.20;99.90;;;;;;6186438;23;20013;-82
2023/12/07 00:32:15;;;;;;;0.90;0.32;;;0.20;99.90;;;;;;6185140;23;20318;-81
2023/12/07 00:34:41;;;;;;;0.30;0.30;;;0.30;99.90;;;;;;6212485;23;20452;-82
2023/12/07 00:37:07;;;;;;;0.17;0.17;;;0.20;99.90;;;;;;6212201;23;20023;-82
2023/12/07 00:39:32;;;;;;;0.10;0.10;;;0.20;99.90;;;;;;6187320;23;20023;-82
2023/12/07 00:41:58;;;;;;;0.20;0.20;;;0.10;99.90;;;;;;6182987;23;20012;-82
2023/12/07 00:44:24;;;;;;;1.00;0.63;;;0.10;99.90;;;;;;6185231;23;20096;-82
2023/12/07 00:46:50;;;;;;;0.30;0.30;;;0.10;99.90;;;;;;6160691;23;20456;-82
2023/12/07 00:49:16;;;;;;;0.10;0.10;;;0.00;99.90;;;;;;6211945;23;20032;-82
2023/12/07 00:51:41;;;;;;;0.30;0.30;;;0.00;99.90;;;;;;6161335;23;20012;-82
2023/12/07 00:54:07;;;;;;;0.52;0.52;;;-0.10;99.90;;;;;;6158480;23;20663;-82
2023/12/07 00:56:32;;;;;;;0.10;0.10;;;-0.10;99.90;;;;;;6211924;23;20462;-83
2023/12/07 00:58:58;;;;;;;0.10;0.10;;;-0.10;99.90;;;;;;6183398;23;20024;-82
2023/12/07 01:01:24;;;;;;;8.85;0.85;;;-0.10;99.90;;;;;;6185077;23;20120;-82
2023/12/07 01:03:49;;;;;;;0.10;0.10;;;-0.10;99.90;;;;;;6184374;23;20478;-82
2023/12/07 01:06:16;;;;;;;0.30;0.30;;;0.00;99.90;;;;;;6187058;23;20444;-83
2023/12/07 01:08:43;;;;;;;0.55;0.55;;;0.00;99.90;;;;;;6186331;23;20492;-81
2023/12/07 01:11:08;;;;;;;0.10;0.10;;;0.00;99.90;;;;;;6186528;23;20035;-82
2023/12/07 01:13:35;;;;;;;0.20;0.20;;;0.10;99.90;;;;;;6184454;23;20008;-81
2023/12/07 01:16:01;;;;;;;0.38;0.25;;;0.10;99.90;;;;;;6186882;23;20087;-82
2023/12/07 01:18:26;;;;;;;0.40;0.40;;;0.10;99.90;;;;;;6161146;23;20055;-82
2023/12/07 01:20:52;;;;;;;0.50;0.50;;;0.00;99.90;;;;;;6186479;23;20058;-81
2023/12/07 01:23:18;;;;;;;1.23;0.50;;;0.10;99.90;;;;;;6207832;23;20016;-82
2023/12/07 01:25:43;;;;;;;0.30;0.30;;;0.10;99.90;;;;;;6183654;23;20016;-80
2023/12/07 01:28:09;;;;;;;0.35;0.35;;;0.10;99.90;;;;;;6210838;23;20016;-81
2023/12/07 01:30:36;;;;;;;0.88;0.52;;;0.10;99.90;;;;;;6185600;23;20008;-82
2023/12/07 01:33:01;;;;;;;2.38;0.52;;;0.10;99.90;;;;;;6183304;23;20078;-82
2023/12/07 01:35:28;;;;;;;0.70;0.70;;;0.10;99.90;;;;;;6185682;23;20499;-82
2023/12/07 01:37:54;;;;;;;0.28;0.28;;;0.10;99.90;;;;;;6211931;23;20024;-82
2023/12/07 01:40:19;;;;;;;0.93;0.90;;;0.00;99.90;;;;;;6186706;23;20020;-82
2023/12/07 01:42:54;;;;;;;0.30;0.30;;;0.00;99.90;;;;;;6188909;23;20013;-82
2023/12/07 01:45:20;;;;;;;0.15;0.15;;;0.00;99.90;;;;;;6187934;23;20079;-83
2023/12/07 01:47:47;;;;;;;0.63;0.63;;;0.00;99.90;;;;;;6188801;23;20013;-82
2023/12/07 01:50:16;;;;;;;0.40;0.40;;;0.00;99.90;;;;;;6211629;23;20087;-82
2023/12/07 01:52:47;;;;;;;0.45;0.45;;;0.10;99.90;;;;;;6160647;23;20497;-82
2023/12/07 01:55:15;;;;;;;2.40;2.17;;;0.10;99.90;;;;;;6184104;23;20013;-81
2023/12/07 01:57:43;;;;;;;0.47;0.47;;;0.00;99.90;;;;;;6159713;23;20021;-82
2023/12/07 02:00:11;;;;;;;0.40;0.40;;;0.00;99.90;;;;;;6185947;23;20012;-81
2023/12/07 02:02:38;;;;;;;0.35;0.35;;;0.00;99.90;;;;;;6182822;23;20328;-81
2023/12/07 02:05:05;;;;;;;0.10;0.10;;;0.00;99.90;;;;;;6183519;23;20047;-81
2023/12/07 02:07:31;;;;;;;0.45;0.45;;;0.00;99.90;;;;;;6209829;23;20008;-80
2023/12/07 02:09:58;;;;;;;0.22;0.22;;;0.00;99.90;;;;;;6211798;23;20055;-81
2023/12/07 02:12:24;;;;;;;0.55;0.50;;;0.00;99.90;;;;;;6184981;23;20013;-80
2023/12/07 02:14:51;;;;;;;0.25;0.25;;;0.00;99.90;;;;;;6183815;23;20027;-81
2023/12/07 02:17:34;;;;;;;0.30;0.30;;;0.00;99.90;;;;;;6186024;23;20020;-81
2023/12/07 02:20:11;;;;;;;0.20;0.20;;;-0.10;99.90;;;;;;6186291;23;20013;-80
2023/12/07 02:22:52;;;;;;;0.30;0.30;;;-0.10;99.90;;;;;;6184594;23;20046;-80
2023/12/07 02:25:23;;;;;;;0.22;0.22;;;-0.20;99.90;;;;;;6210939;23;20024;-80
2023/12/07 02:27:49;;;;;;;1.55;0.20;;;-0.20;99.90;;;;;;6185437;23;20095;-80
2023/12/07 02:30:15;;;;;;;0.10;0.10;;;-0.20;99.90;;;;;;6212228;23;20047;-80
2023/12/07 02:32:43;;;;;;;1.23;0.85;;;-0.30;99.90;;;;;;6185467;23;20456;-80
2023/12/07 02:35:11;;;;;;;1.98;0.43;;;-0.30;99.90;;;;;;6184964;23;20008;-80
2023/12/07 02:37:49;;;;;;;0.30;0.30;;;-0.30;99.90;;;;;;6185088;23;20027;-80
2023/12/07 02:40:18;;;;;;;0.20;0.20;;;-0.30;99.90;;;;;;6183312;23;20024;-80
2023/12/07 02:42:44;;;;;;;0.70;0.70;;;-0.30;99.90;;;;;;6184865;23;20039;-80
2023/12/07 02:45:12;;;;;;;0.55;0.55;;;-0.40;99.90;;;;;;6180251;23;20451;-80
2023/12/07 02:47:38;;;;;;;0.57;0.57;;;-0.30;99.90;;;;;;6184186;23;20016;-80
2023/12/07 02:50:06;;;;;;;0.10;0.10;;;-0.40;99.90;;;;;;6181958;23;20051;-80
2023/12/07 02:52:32;;;;;;;0.20;0.20;;;-0.40;99.90;;;;;;6210932;23;20009;-80
2023/12/07 02:54:57;;;;;;;0.40;0.40;;;-0.40;99.90;;;;;;6182315;23;20451;-80
2023/12/07 02:57:23;;;;;;;1.20;0.45;;;-0.50;99.90;;;;;;6185284;23;20024;-80
2023/12/07 02:59:49;;;;;;;0.30;0.30;;;-0.50;99.90;;;;;;6183156;23;20017;-80
2023/12/07 03:02:14;;;;;;;0.25;0.25;;;-0.60;99.90;;;;;;6185218;23;20380;-80
2023/12/07 03:04:40;;;;;;;0.15;0.15;;;-0.60;99.90;;;;;;6183653;23;20025;-80
2023/12/07 03:07:05;;;;;;;0.77;0.70;;;-0.60;99.90;;;;;;6184338;23;20027;-80
2023/12/07 03:09:31;;;;;;;0.20;0.20;;;-0.60;99.90;;;;;;6182790;23;20095;-80
2023/12/07 03:11:56;;;;;;;0.68;0.40;;;-0.60;99.90;;;;;;6184646;23;20020;-80
2023/12/07 03:14:22;;;;;;;0.57;0.57;;;-0.80;99.90;;;;;;6183141;23;20009;-80
2023/12/07 03:16:47;;;;;;;2.30;1.30;;;-1.00;99.90;;;;;;6185907;23;20023;-80
2023/12/07 03:19:13;;;;;;;2.45;1.20;;;-1.10;99.90;;;;;;6211400;23;20051;-81
2023/12/07 03:21:40;;;;;;;0.68;0.68;;;-1.10;99.90;;;;;;6160964;23;20131;-80
2023/12/07 03:24:08;;;;;;;0.30;0.30;;;-1.00;99.90;;;;;;6180849;23;20017;-80
2023/12/07 03:26:33;;;;;;;0.40;0.40;;;-1.10;99.90;;;;;;6183103;23;20021;-80
2023/12/07 03:28:59;;;;;;;0.30;0.30;;;-1.00;99.90;;;;;;6158803;23;20096;-80
2023/12/07 03:31:24;;;;;;;0.50;0.50;;;-1.00;99.90;;;;;;6184061;23;20383;-79
2023/12/07 03:33:50;;;;;;;0.40;0.35;;;-1.10;99.90;;;;;;6183138;23;20546;-80
2023/12/07 03:36:16;;;;;;;0.70;0.70;;;-1.00;99.90;;;;;;6183232;23;20322;-79
2023/12/07 03:38:42;;;;;;;0.25;0.25;;;-1.10;99.90;;;;;;6210949;23;20013;-79
2023/12/07 03:41:08;;;;;;;0.60;0.60;;;-1.00;99.90;;;;;;6185569;23;20095;-79
2023/12/07 03:43:33;;;;;;;0.95;0.40;;;-1.00;99.90;;;;;;6183061;23;20355;-79
2023/12/07 03:45:59;;;;;;;0.50;0.50;;;-1.00;99.90;;;;;;6184943;23;20011;-79
2023/12/07 03:48:25;;;;;;;0.20;0.20;;;-1.00;99.90;;;;;;6180904;23;20099;-79
2023/12/07 03:50:50;;;;;;;0.10;0.10;;;-1.00;99.90;;;;;;6184315;23;20219;-79
2023/12/07 03:53:16;;;;;;;0.10;0.10;;;-1.10;99.90;;;;;;6210217;23;20344;-78
2023/12/07 03:55:41;;;;;;;0.20;0.20;;;-1.00;99.90;;;;;;6184961;23;20018;-78
2023/12/07 03:58:07;;;;;;;1.38;0.35;;;-1.00;99.90;;;;;;6183409;23;20016;-78
2023/12/07 04:00:32;;;;;;;0.50;0.50;;;-1.00;99.90;;;;;;6184300;23;20032;-78
2023/12/07 04:02:58;;;;;;;1.98;0.75;;;-1.00;99.90;;;;;;6210434;23;20075;-78
2023/12/07 04:05:24;;;;;;;0.30;0.30;;;-0.90;99.90;;;;;;6156555;23;20016;-78
2023/12/07 04:07:49;;;;;;;1.15;0.40;;;-0.80;99.90;;;;;;6182990;23;20013;-78
2023/12/07 04:10:15;;;;;;;1.02;1.02;;;-0.80;99.90;;;;;;6185328;23;20004;-76
2023/12/07 04:12:41;;;;;;;0.47;0.45;;;-0.70;99.90;;;;;;6182111;23;20341;-78
2023/12/07 04:15:07;;;;;;;0.75;0.32;;;-0.70;99.90;;;;;;6160586;23;20468;-77
2023/12/07 04:17:33;;;;;;;0.30;0.30;;;-0.70;99.90;;;;;;6185501;23;20322;-77
2023/12/07 04:19:58;;;;;;;0.10;0.10;;;-0.70;99.90;;;;;;6186510;23;20028;-77
2023/12/07 04:22:24;;;;;;;0.50;0.50;;;-0.60;99.90;;;;;;6184781;23;20013;-77
2023/12/07 04:24:49;;;;;;;0.40;0.25;;;-0.60;99.90;;;;;;6185727;23;20496;-77
2023/12/07 04:27:15;;;;;;;0.95;0.95;;;-0.60;99.90;;;;;;6160287;23;20017;-77
2023/12/07 04:29:41;;;;;;;0.63;0.63;;;-0.50;99.90;;;;;;6185777;23;20012;-78
2023/12/07 04:32:07;;;;;;;0.10;0.10;;;-0.50;99.90;;;;;;6184619;23;20038;-77
2023/12/07 04:34:33;;;;;;;1.30;1.20;;;-0.60;99.90;;;;;;6184105;23;20025;-77
2023/12/07 04:37:00;;;;;;;0.40;0.40;;;-0.50;99.90;;;;;;6212823;23;20031;-78
2023/12/07 04:39:26;;;;;;;0.30;0.30;;;-0.50;99.90;;;;;;6211381;23;20471;-77
2023/12/07 04:41:51;;;;;;;0.32;0.32;;;-0.50;99.90;;;;;;6185362;23;20013;-77
2023/12/07 04:44:17;;;;;;;0.85;0.50;;;-0.40;99.90;;;;;;6184837;23;20398;-77
2023/12/07 04:46:43;;;;;;;0.63;0.32;;;-0.40;99.90;;;;;;6208472;23;20013;-77
2023/12/07 04:49:08;;;;;;;0.30;0.30;;;-0.30;99.90;;;;;;6183613;23;20015;-77
2023/12/07 04:51:34;;;;;;;0.68;0.68;;;-0.30;99.90;;;;;;6211101;23;20063;-77
2023/12/07 04:54:00;;;;;;;0.95;0.95;;;-0.30;99.90;;;;;;6210773;23;20016;-76
2023/12/07 04:56:25;;;;;;;0.45;0.32;;;-0.30;99.90;;;;;;6184631;23;20020;-77
2023/12/07 04:58:51;;;;;;;0.38;0.38;;;-0.20;99.90;;;;;;6184522;23;20008;-77
2023/12/07 05:01:18;;;;;;;0.52;0.43;;;-0.20;99.90;;;;;;6184776;23;20118;-77
2023/12/07 05:03:44;;;;;;;0.50;0.50;;;-0.20;99.90;;;;;;6184287;23;20452;-77
2023/12/07 05:06:10;;;;;;;0.30;0.30;;;-0.20;99.90;;;;;;6211839;23;20023;-77
2023/12/07 05:08:36;;;;;;;0.50;0.50;;;-0.20;99.90;;;;;;6184621;23;20013;-78
2023/12/07 05:11:01;;;;;;;1.10;0.45;;;-0.20;99.90;;;;;;6186601;23;20023;-77
2023/12/07 05:13:27;;;;;;;0.68;0.68;;;-0.20;99.90;;;;;;6212325;23;20079;-78
2023/12/07 05:15:52;;;;;;;0.52;0.35;;;-0.30;99.90;;;;;;6182368;23;20016;-78
2023/12/07 05:18:18;;;;;;;0.68;0.65;;;-0.30;99.90;;;;;;6182125;23;20021;-77
2023/12/07 05:20:44;;;;;;;0.25;0.25;;;-0.30;99.90;;;;;;6185421;23;20035;-78
2023/12/07 05:23:09;;;;;;;0.85;0.35;;;-0.40;99.90;;;;;;6181001;23;20491;-77
2023/12/07 05:25:35;;;;;;;0.40;0.40;;;-0.30;99.90;;;;;;6185012;23;20044;-78
2023/12/07 05:28:01;;;;;;;0.30;0.30;;;-0.40;99.90;;;;;;6184295;23;20048;-77
2023/12/07 05:30:27;;;;;;;1.65;1.00;;;-0.40;99.90;;;;;;6187023;23;20027;-78
2023/12/07 05:32:53;;;;;;;0.20;0.20;;;-0.50;99.90;;;;;;6186003;23;20008;-78
2023/12/07 05:35:19;;;;;;;0.17;0.17;;;-0.50;99.90;;;;;;6161381;23;20442;-78
2023/12/07 05:37:44;;;;;;;1.45;1.17;;;-0.50;99.90;;;;;;6161437;23;20012;-78
2023/12/07 05:40:12;;;;;;;0.17;0.17;;;-0.50;99.90;;;;;;6212000;23;20052;-78
2023/12/07 05:42:37;;;;;;;0.10;0.10;;;-0.50;99.90;;;;;;6213071;23;20012;-78
2023/12/07 05:45:04;;;;;;;0.75;0.75;;;-0.60;99.90;;;;;;6185918;23;20016;-78
2023/12/07 05:47:29;;;;;;;2.53;0.60;;;-0.60;99.90;;;;;;6184550;23;20440;-78
2023/12/07 05:49:58;;;;;;;0.98;0.98;;;-0.60;99.90;;;;;;6211962;23;20020;-78
2023/12/07 05:52:23;;;;;;;0.98;0.98;;;-0.60;99.90;;;;;;6185943;23;20391;-78
2023/12/07 05:54:49;;;;;;;0.40;0.40;;;-0.60;99.90;;;;;;6207780;23;20027;-77
2023/12/07 05:57:14;;;;;;;0.30;0.30;;;-0.70;99.90;;;;;;6185458;23;20020;-78
2023/12/07 05:59:41;;;;;;;0.35;0.35;;;-0.70;99.90;;;;;;6184616;23;20096;-77
2023/12/07 06:02:08;;;;;;;1.13;1.13;;;-0.70;99.90;;;;;;6184913;23;20352;-78
2023/12/07 06:04:33;;;;;;;2.65;0.30;;;-0.70;99.90;;;;;;6183383;23;20024;-78
2023/12/07 06:06:59;;;;;;;2.92;0.50;;;-0.70;99.90;;;;;;6184310;23;20020;-78
2023/12/07 06:09:24;;;;;;;5.25;0.98;;;-0.70;99.90;;;;;;6185629;23;20009;-78
2023/12/07 06:11:50;;;;;;;0.20;0.20;;;-0.80;99.90;;;;;;6212128;23;20435;-78
2023/12/07 06:14:16;;;;;;;0.28;0.28;;;-0.70;99.90;;;;;;6183937;23;20391;-77
2023/12/07 06:16:41;;;;;;;0.20;0.20;;;-0.80;99.90;;;;;;6211910;23;20020;-78
2023/12/07 06:19:07;;;;;;;0.50;0.50;;;-0.70;99.90;;;;;;6184631;23;20096;-78
2023/12/07 06:21:33;;;;;;;0.43;0.43;;;-0.70;99.90;;;;;;6185836;23;20048;-78
2023/12/07 06:24:01;;;;;;;0.10;0.10;;;-0.70;99.90;;;;;;6181658;23;20012;-78
2023/12/07 06:26:26;;;;;;;0.20;0.20;;;-0.70;99.90;;;;;;6184305;23;20024;-78
2023/12/07 06:28:52;;;;;;;0.05;0.05;;;-0.70;99.90;;;;;;6159409;23;20344;-78
2023/12/07 06:31:21;;;;;;;0.20;0.20;;;-0.70;99.90;;;;;;6185525;23;20047;-78
2023/12/07 06:33:47;;;;;;;0.10;0.10;;;-0.70;99.90;;;;;;6210349;23;20008;-78
2023/12/07 06:36:23;;;;;;;0.15;0.15;;;-0.80;99.90;;;;;;6181582;23;20023;-78
2023/12/07 06:38:49;;;;;;;0.13;0.13;;;-0.80;99.90;;;;;;6183067;23;20062;-78
2023/12/07 06:41:16;;;;;;;0.65;0.65;;;-0.80;99.90;;;;;;6183845;23;20408;-78
2023/12/07 06:43:42;;;;;;;0.20;0.20;;;-0.90;99.90;;;;;;6208910;23;20039;-78
2023/12/07 06:46:07;;;;;;;0.28;0.28;;;-0.90;99.90;;;;;;6181594;23;20062;-79
2023/12/07 06:48:33;;;;;;;0.10;0.10;;;-0.90;99.90;;;;;;6183726;23;20345;-78
2023/12/07 06:50:59;;;;;;;0.20;0.20;;;-0.90;99.90;;;;;;6211650;23;20049;-79
2023/12/07 06:53:25;;;;;;;0.35;0.35;;;-1.00;99.90;;;;;;6184794;23;20021;-79
2023/12/07 06:55:50;;;;;;;0.60;0.50;;;-0.90;99.90;;;;;;6183625;23;20009;-78
2023/12/07 06:58:16;;;;;;;1.00;0.35;;;-1.00;99.90;;;;;;6184740;23;20055;-79
2023/12/07 07:00:41;;;;;;;0.10;0.10;;;-1.00;99.90;;;;;;6212002;23;20017;-78
2023/12/07 07:03:07;;;;;;;0.28;0.28;;;-1.00;99.90;;;;;;6185549;23;20016;-78
2023/12/07 07:05:32;;;;;;;0.75;0.75;;;-1.00;99.90;;;;;;6212579;23;20016;-78
2023/12/07 07:07:58;;;;;;;0.10;0.10;;;-1.00;99.90;;;;;;6185505;23;20048;-78
2023/12/07 07:10:24;;;;;;;0.22;0.22;;;-1.00;99.90;;;;;;6185285;23;20013;-77
2023/12/07 07:12:50;;;;;;;0.85;0.85;;;-1.10;99.90;;;;;;6160502;23;20356;-74
2023/12/07 07:15:16;;;;;;;0.10;0.10;;;-1.10;99.90;;;;;;6184999;23;20012;-75
2023/12/07 07:17:41;;;;;;;1.65;0.38;;;-1.10;99.90;;;;;;6181243;23;20344;-74
2023/12/07 07:20:07;;;;;;;0.55;0.55;;;-1.10;99.90;;;;;;6209031;23;20017;-74
2023/12/07 07:22:34;;;;;;;0.43;0.43;;;-1.10;99.90;;;;;;6183517;23;20016;-74
2023/12/07 07:25:00;;;;;;;0.45;0.45;;;-1.10;99.90;;;;;;6180408;23;20102;-74
2023/12/07 07:27:25;;;;;;;0.35;0.35;;;-1.10;99.90;;;;;;6184143;23;20013;-75
2023/12/07 07:29:52;;;;;;;0.10;0.10;;;-1.10;99.90;;;;;;6159322;23;20074;-74
2023/12/07 07:32:17;;;;;;;0.20;0.20;;;-1.10;99.90;;;;;;6184777;23;20013;-74
2023/12/07 07:34:43;;;;;;;0.17;0.17;;;-1.00;99.90;;;;;;6184292;23;20016;-74
2023/12/07 07:37:08;;;;;;;0.40;0.40;;;-1.10;99.90;;;;;;6160137;23;20018;-75
2023/12/07 07:39:34;;;;;;;0.30;0.30;;;-1.10;99.90;;;;;;6187229;23;20090;-74
2023/12/07 07:42:00;;;;;;;1.45;0.32;;;-1.10;99.90;;;;;;6185919;23;20179;-74
2023/12/07 07:44:26;;;;;;;5.35;0.43;;;-1.10;99.90;;;;;;6185680;23;20019;-74
2023/12/07 07:46:51;;;;;;;0.20;0.20;;;-1.10;99.90;;;;;;6187054;23;20419;-74
2023/12/07 07:49:18;;;;;;;0.10;0.10;;;-1.10;99.90;;;;;;6186395;23;20393;-74
2023/12/07 07:51:43;;;;;;;0.17;0.17;;;-1.10;99.90;;;;;;6187072;23;20092;-74
2023/12/07 07:54:09;;;;;;;0.40;0.40;;;-1.10;99.90;;;;;;6158399;23;20039;-74
2023/12/07 07:56:35;;;;;;;0.10;0.10;;;-1.10;99.90;;;;;;6184033;23;20023;-74
2023/12/07 07:59:01;;;;;;;0.20;0.20;;;-1.10;99.90;;;;;;6184788;23;20071;-74
2023/12/07 08:01:26;;;;;;;0.90;0.75;;;-1.10;99.90;;;;;;6185623;23;20448;-74
2023/12/07 08:03:52;;;;;;;0.60;0.60;;;-1.10;99.90;;;;;;6210969;23;20413;-74
2023/12/07 08:06:18;;;;;;;0.10;0.10;;;-1.10;99.90;;;;;;6212524;23;20012;-74
2023/12/07 08:08:44;;;;;;;0.20;0.20;;;-1.10;99.90;;;;;;6185011;23;20483;-74
2023/12/07 08:11:09;;;;;;;1.35;0.52;;;-1.10;99.90;;;;;;6186559;23;20013;-74
2023/12/07 08:13:35;;;;;;;0.57;0.57;;;-1.10;99.90;;;;;;6185381;23;20008;-74
2023/12/07 08:16:01;;;;;;;1.42;0.93;;;-1.00;99.90;;;;;;6184381;23;20008;-74
2023/12/07 08:18:26;;;;;;;1.17;1.08;;;-1.00;99.90;;;;;;6186286;23;20440;-74
2023/12/07 08:20:52;;;;;;;1.17;1.15;;;-1.00;99.90;;;;;;6211547;23;20012;-74
2023/12/07 08:23:17;;;;;;;0.22;0.22;;;-1.00;99.90;;;;;;6183688;23;20012;-74
2023/12/07 08:25:43;;;;;;;0.40;0.40;;;-1.00;99.90;;;;;;6186860;23;20023;-74
2023/12/07 08:28:09;;;;;;;1.95;0.38;;;-0.90;99.90;;;;;;6185476;23;20024;-75
2023/12/07 08:30:36;;;;;;;0.10;0.10;;;-0.90;99.90;;;;;;6186689;23;20009;-74
2023/12/07 08:33:01;;;;;;;0.52;0.52;;;-0.90;99.90;;;;;;6185433;23;20009;-74
2023/12/07 08:35:27;;;;;;;0.43;0.43;;;-0.90;99.90;;;;;;6185937;23;20046;-75
2023/12/07 08:37:53;;;;;;;3.30;0.82;;;-0.90;99.90;;;;;;6182488;23;20048;-75
2023/12/07 08:40:19;;;;;;;0.10;0.10;;;-0.90;99.90;;;;;;6184585;23;20019;-75
2023/12/07 08:42:46;;;;;;;0.30;0.30;;;-0.90;99.90;;;;;;6184758;23;20340;-74
2023/12/07 08:45:13;;;;;;;0.10;0.10;;;-0.90;99.90;;;;;;6210188;23;20024;-75
2023/12/07 08:47:41;;;;;;;0.22;0.22;;;-0.80;99.90;;;;;;6185314;23;20013;-75
2023/12/07 08:50:07;;;;;;;0.68;0.68;;;-0.80;99.90;;;;;;6185091;23;20336;-75
2023/12/07 08:52:33;;;;;;;2.63;0.82;;;-0.80;99.90;;;;;;6212718;23;20009;-75
2023/12/07 08:54:59;;;;;;;1.10;1.10;;;-0.80;99.90;;;;;;6184477;23;20008;-75
2023/12/07 08:57:25;;;;;;;1.08;0.65;;;-0.70;99.90;;;;;;6186642;23;20103;-75
2023/12/07 08:59:50;;;;;;;1.35;0.60;;;-0.60;99.90;;;;;;6212032;23;20016;-75
2023/12/07 09:02:16;;;;;;;1.17;0.82;;;-0.50;99.90;;;;;;6186804;23;20017;-75
2023/12/07 09:04:42;;;;;;;0.65;0.65;;;-0.50;99.90;;;;;;6159179;23;20016;-75
2023/12/07 09:07:09;;;;;;;0.32;0.32;;;-0.30;99.90;;;;;;6186037;23;20091;-75
2023/12/07 09:09:35;;;;;;;1.27;1.15;;;-0.30;99.90;;;;;;6184637;23;20012;-75
2023/12/07 09:12:01;;;;;;;2.15;1.23;;;-0.20;99.90;;;;;;6185653;23;20013;-75
2023/12/07 09:14:26;;;;;;;0.57;0.57;;;-0.20;99.90;;;;;;6211519;23;20008;-75
2023/12/07 09:16:52;;;;;;;0.52;0.52;;;-0.10;99.90;;;;;;6186293;23;20017;-75
2023/12/07 09:19:17;;;;;;;2.85;0.85;;;-0.10;99.90;;;;;;6207642;23;20012;-74
2023/12/07 09:21:43;;;;;;;1.75;1.65;;;0.00;99.90;;;;;;6211333;23;20573;-75
2023/12/07 09:24:09;;;;;;;1.27;0.85;;;0.00;99.90;;;;;;6180192;23;20027;-75
2023/12/07 09:26:35;;;;;;;0.50;0.50;;;0.10;99.90;;;;;;6184428;23;20008;-75
2023/12/07 09:29:00;;;;;;;0.73;0.73;;;0.20;99.90;;;;;;6182432;23;20359;-75
2023/12/07 09:31:27;;;;;;;1.85;0.82;;;0.20;99.90;;;;;;6184477;23;20331;-75
2023/12/07 09:33:53;;;;;;;0.57;0.35;;;0.20;99.90;;;;;;6210215;23;20012;-75
2023/12/07 09:36:21;;;;;;;1.55;1.27;;;0.20;99.90;;;;;;6184955;23;20466;-75
2023/12/07 09:38:46;;;;;;;0.40;0.35;;;0.30;99.90;;;;;;6184170;23;20012;-75
2023/12/07 09:41:12;;;;;;;0.65;0.65;;;0.30;99.90;;;;;;6185696;23;20051;-75
2023/12/07 09:43:38;;;;;;;1.15;1.08;;;0.40;99.90;;;;;;6183636;23;20079;-75
2023/12/07 09:46:05;;;;;;;1.55;1.17;;;0.40;99.90;;;;;;6212295;23;20013;-75
2023/12/07 09:48:31;;;;;;;1.27;0.90;;;0.40;99.90;;;;;;6183271;23;20017;-76
2023/12/07 09:50:59;;;;;;;0.30;0.30;;;0.40;99.90;;;;;;6185817;23;20013;-76
2023/12/07 09:53:25;;;;;;;1.40;1.13;;;0.40;99.90;;;;;;6211355;23;20017;-75
2023/12/07 09:55:50;;;;;;;1.13;1.02;;;0.50;99.90;;;;;;6159669;23;20356;-76
2023/12/07 09:58:16;;;;;;;0.55;0.55;;;0.50;99.90;;;;;;6183210;23;20016;-75
2023/12/07 10:00:41;;;;;;;1.60;0.82;;;0.60;99.90;;;;;;6182271;23;20345;-74
2023/12/07 10:03:19;;;;;;;0.80;0.55;;;0.60;99.90;;;;;;6183372;23;20116;-75
2023/12/07 10:05:56;;;;;;;1.27;0.57;;;0.60;99.90;;;;;;6184408;23;20012;-74
2023/12/07 10:08:30;;;;;;;1.95;0.80;;;0.60;99.90;;;;;;6183194;23;20021;-75
2023/12/07 10:11:10;;;;;;;3.65;1.00;;;0.60;99.90;;;;;;6211515;23;20087;-74
2023/12/07 10:13:36;;;;;;;1.02;1.02;;;0.60;99.90;;;;;;6184432;23;20340;-75
2023/12/07 10:16:06;;;;;;;2.70;0.60;;;0.70;99.90;;;;;;6160484;23;20099;-74
2023/12/07 10:18:32;;;;;;;2.80;1.50;;;0.60;99.90;;;;;;6184205;23;20048;-75
2023/12/07 10:20:57;;;;;;;0.95;0.88;;;0.60;99.90;;;;;;6183911;23;20023;-74
2023/12/07 10:23:25;;;;;;;0.32;0.32;;;0.60;99.90;;;;;;6184806;23;20016;-74
2023/12/07 10:25:50;;;;;;;1.55;0.95;;;0.70;99.90;;;;;;6184121;23;20024;-75
2023/12/07 10:28:17;;;;;;;0.65;0.65;;;0.70;99.90;;;;;;6183588;23;20027;-74
2023/12/07 10:30:44;;;;;;;1.55;1.25;;;0.70;99.90;;;;;;6184068;23;20020;-74
2023/12/07 10:33:10;;;;;;;0.30;0.30;;;0.70;99.90;;;;;;6184717;23;20019;-74
2023/12/07 10:35:40;;;;;;;0.55;0.55;;;0.70;99.90;;;;;;6185003;23;20004;-75
2023/12/07 10:38:06;;;;;;;0.90;0.90;;;0.70;99.90;;;;;;6185857;23;20024;-75
2023/12/07 10:40:31;;;;;;;0.80;0.80;;;0.80;99.90;;;;;;6181125;23;20056;-74
2023/12/07 10:42:58;;;;;;;0.75;0.70;;;0.80;99.90;;;;;;6183820;23;20017;-74
2023/12/07 10:45:29;;;;;;;1.05;0.80;;;0.80;99.90;;;;;;6183089;23;20325;-74
2023/12/07 10:48:02;;;;;;;1.67;1.58;;;0.80;99.90;;;;;;6210866;23;20403;-75
2023/12/07 10:50:34;;;;;;;1.25;1.17;;;0.90;99.90;;;;;;6183219;23;20871;-75
2023/12/07 10:53:10;;;;;;;1.23;0.30;;;0.90;99.90;;;;;;6211789;23;20091;-75
2023/12/07 10:55:47;;;;;;;0.52;0.52;;;0.90;99.90;;;;;;6160138;23;20451;-75
2023/12/07 10:58:14;;;;;;;0.95;0.63;;;0.90;99.90;;;;;;6211174;23;20013;-74
2023/12/07 11:00:46;;;;;;;6.03;0.95;;;0.90;99.90;;;;;;6184930;23;20376;-75
2023/12/07 11:03:17;;;;;;;0.57;0.43;;;0.90;99.90;;;;;;6184958;23;20376;-75
2023/12/07 11:05:45;;;;;;;0.45;0.45;;;0.90;99.90;;;;;;6210890;23;20012;-75
2023/12/07 11:08:24;;;;;;;0.47;0.47;;;1.00;99.90;;;;;;6184835;23;20095;-75
2023/12/07 11:10:58;;;;;;;1.10;0.95;;;1.00;99.90;;;;;;6212796;23;20008;-75
2023/12/07 11:13:32;;;;;;;6.90;0.93;;;1.00;99.90;;;;;;6212433;23;20261;-75
2023/12/07 11:15:58;;;;;;;3.25;1.90;;;1.00;99.90;;;;;;6212973;23;20059;-75
2023/12/07 11:18:26;;;;;;;0.57;0.57;;;1.00;99.90;;;;;;6186594;23;20017;-75
2023/12/07 11:20:54;;;;;;;1.48;0.82;;;1.10;99.90;;;;;;6182441;23;20055;-75
2023/12/07 11:23:20;;;;;;;0.70;0.68;;;1.10;99.90;;;;;;6184919;23;20483;-75
2023/12/07 11:25:47;;;;;;;3.03;1.10;;;1.10;99.90;;;;;;6183586;23;20036;-75
2023/12/07 11:28:13;;;;;;;0.98;0.68;;;1.10;99.90;;;;;;6184512;23;20451;-75
2023/12/07 11:30:43;;;;;;;1.80;1.58;;;1.20;99.90;;;;;;6186125;23;20511;-75
2023/12/07 11:33:10;;;;;;;0.93;0.68;;;1.20;99.90;;;;;;6212194;23;20012;-76
2023/12/07 11:36:02;;;;;;;1.65;1.55;;;1.10;99.90;;;;;;6183830;23;20084;-75
2023/12/07 11:38:27;;;;;;;0.43;0.43;;;1.10;99.90;;;;;;6185940;23;20012;-76
2023/12/07 11:40:55;;;;;;;0.60;0.60;;;1.20;99.90;;;;;;6213186;23;20031;-76
2023/12/07 11:43:33;;;;;;;1.23;1.15;;;1.10;99.90;;;;;;6185653;23;20075;-76
2023/12/07 11:45:59;;;;;;;0.25;0.25;;;1.10;99.90;;;;;;6185719;23;20019;-76
2023/12/07 11:48:25;;;;;;;8.93;1.77;;;1.20;99.90;;;;;;6185000;23;20016;-76
2023/12/07 11:51:07;;;;;;;2.78;1.02;;;1.20;99.90;;;;;;6213676;23;20340;-76
2023/12/07 11:53:37;;;;;;;0.75;0.45;;;1.20;99.90;;;;;;6186088;23;20486;-76
2023/12/07 11:56:05;;;;;;;0.95;0.63;;;1.20;99.90;;;;;;6184637;23;20011;-76
2023/12/07 11:58:32;;;;;;;8.50;1.08;;;1.30;99.90;;;;;;6184767;23;20017;-76
2023/12/07 12:00:58;;;;;;;2.58;1.67;;;1.30;99.90;;;;;;6182396;23;20043;-76
2023/12/07 12:03:28;;;;;;;0.30;0.30;;;1.30;99.90;;;;;;6212233;23;20443;-75
2023/12/07 12:05:54;;;;;;;2.10;1.25;;;1.30;99.90;;;;;;6183311;23;20352;-76
2023/12/07 12:08:20;;;;;;;1.98;1.13;;;1.30;99.90;;;;;;6183624;23;20448;-76
2023/12/07 12:10:47;;;;;;;0.43;0.35;;;1.30;99.90;;;;;;6184227;23;20112;-77
2023/12/07 12:13:13;;;;;;;4.55;0.77;;;1.30;99.90;;;;;;6184628;23;20012;-76
2023/12/07 12:15:39;;;;;;;0.73;0.40;;;1.30;99.90;;;;;;6185522;23;20027;-76
2023/12/07 12:18:06;;;;;;;1.63;1.30;;;1.30;99.90;;;;;;6185446;23;20013;-76
2023/12/07 12:20:32;;;;;;;2.65;1.27;;;1.40;99.90;;;;;;6184791;23;20013;-76
2023/12/07 12:22:58;;;;;;;1.63;1.30;;;1.40;99.90;;;;;;6185177;23;20024;-76
2023/12/07 12:25:28;;;;;;;1.45;0.88;;;1.40;99.90;;;;;;6184435;23;20199;-76
2023/12/07 12:27:55;;;;;;;2.33;1.02;;;1.50;99.90;;;;;;6185773;23;20039;-76
2023/12/07 12:30:22;;;;;;;0.65;0.52;;;1.50;99.90;;;;;;6185698;23;20063;-75
2023/12/07 12:32:48;;;;;;;3.60;1.63;;;1.50;99.90;;;;;;6185215;23;20005;-75
2023/12/07 12:35:14;;;;;;;0.85;0.73;;;1.50;99.90;;;;;;6183568;23;20013;-76
2023/12/07 12:37:44;;;;;;;0.95;0.95;;;1.50;99.90;;;;;;6186235;23;20336;-75
2023/12/07 12:40:20;;;;;;;0.52;0.52;;;1.50;99.90;;;;;;6182514;23;20021;-75
2023/12/07 12:42:48;;;;;;;1.23;0.90;;;1.40;99.90;;;;;;6211635;23;20307;-76
2023/12/07 12:45:18;;;;;;;1.55;1.42;;;1.50;99.90;;;;;;6184313;23;20392;-76
2023/12/07 12:47:45;;;;;;;2.83;1.77;;;1.50;99.90;;;;;;6185874;23;20087;-75